sensor_id;sensor_type;location;lat;lon;timestamp;P1;durP1;ratioP1;P2;durP2;ratioP2
15354;SDS011;7777;52.254;9.618;2022-12-24T00:00:21;17.43;;;10.30;;
15354;SDS011;7777;52.254;9.618;2022-12-24T00:02:48;11.93;;;8.67;;
15354;SDS011;7777;52.254;9.618;2022-12-24T00:05:14;13.70;;;8.80;;
15354;SDS011;7777;52.254;9.618;2022-12-24T00:07:40;13.83;;;8.97;;
15354;SDS011;7777;52.254;9.618;2022-12-24T00:10:06;12.50;;;8.70;;
15354;SDS011;7777;52.254;9.618;2022-12-24T00:12:33;10.90;;;7.83;;
15354;SDS011;7777;52.254;9.618;2022-12-24T00:15:00;15.60;;;8.67;;
15354;SDS011;7777;52.254;9.618;2022-12-24T00:17:28;10.60;;;7.37;;
15354;SDS011;7777;52.254;9.618;2022-12-24T00:19:54;10.10;;;7.80;;
15354;SDS011;7777;52.254;9.618;2022-12-24T00:22:19;11.83;;;7.00;;
15354;SDS011;7777;52.254;9.618;2022-12-24T00:24:49;9.53;;;6.00;;
15354;SDS011;7777;52.254;9.618;2022-12-24T00:27:15;9.03;;;5.93;;
15354;SDS011;7777;52.254;9.618;2022-12-24T00:29:41;7.53;;;5.50;;
15354;SDS011;7777;52.254;9.618;2022-12-24T00:32:07;7.13;;;4.93;;
15354;SDS011;7777;52.254;9.618;2022-12-24T00:34:37;5.50;;;4.20;;
15354;SDS011;7777;52.254;9.618;2022-12-24T00:37:04;6.10;;;4.27;;
15354;SDS011;7777;52.254;9.618;2022-12-24T00:39:30;4.73;;;3.00;;
15354;SDS011;7777;52.254;9.618;2022-12-24T00:41:56;5.03;;;3.60;;
15354;SDS011;7777;52.254;9.618;2022-12-24T00:44:22;5.77;;;3.37;;
15354;SDS011;7777;52.254;9.618;2022-12-24T00:46:48;8.33;;;3.33;;
15354;SDS011;7777;52.254;9.618;2022-12-24T00:49:16;6.13;;;3.30;;
15354;SDS011;7777;52.254;9.618;2022-12-24T00:51:42;5.67;;;3.20;;
15354;SDS011;7777;52.254;9.618;2022-12-24T00:54:08;4.37;;;2.90;;
15354;SDS011;7777;52.254;9.618;2022-12-24T00:56:34;3.90;;;2.80;;
15354;SDS011;7777;52.254;9.618;2022-12-24T00:59:00;3.73;;;2.40;;
15354;SDS011;7777;52.254;9.618;2022-12-24T01:01:26;3.93;;;2.47;;
15354;SDS011;7777;52.254;9.618;2022-12-24T01:03:55;3.40;;;2.60;;
15354;SDS011;7777;52.254;9.618;2022-12-24T01:06:40;3.50;;;2.20;;
15354;SDS011;7777;52.254;9.618;2022-12-24T01:09:10;3.60;;;2.20;;
15354;SDS011;7777;52.254;9.618;2022-12-24T01:11:35;4.63;;;2.27;;
15354;SDS011;7777;52.254;9.618;2022-12-24T01:14:01;3.83;;;1.80;;
15354;SDS011;7777;52.254;9.618;2022-12-24T01:16:30;3.17;;;2.10;;
15354;SDS011;7777;52.254;9.618;2022-12-24T01:18:59;4.23;;;1.90;;
15354;SDS011;7777;52.254;9.618;2022-12-24T01:21:25;4.10;;;2.00;;
15354;SDS011;7777;52.254;9.618;2022-12-24T01:23:51;3.67;;;1.80;;
15354;SDS011;7777;52.254;9.618;2022-12-24T01:26:16;2.00;;;1.50;;
15354;SDS011;7777;52.254;9.618;2022-12-24T01:28:42;2.53;;;1.50;;
15354;SDS011;7777;52.254;9.618;2022-12-24T01:31:09;4.13;;;1.40;;
15354;SDS011;7777;52.254;9.618;2022-12-24T01:33:40;4.43;;;1.80;;
15354;SDS011;7777;52.254;9.618;2022-12-24T01:36:11;9.47;;;2.67;;
15354;SDS011;7777;52.254;9.618;2022-12-24T01:38:43;6.30;;;2.57;;
15354;SDS011;7777;52.254;9.618;2022-12-24T01:41:16;12.50;;;4.27;;
15354;SDS011;7777;52.254;9.618;2022-12-24T01:47:11;11.90;;;3.50;;
15354;SDS011;7777;52.254;9.618;2022-12-24T01:49:59;7.90;;;3.60;;
15354;SDS011;7777;52.254;9.618;2022-12-24T01:52:35;10.40;;;3.13;;
15354;SDS011;7777;52.254;9.618;2022-12-24T01:55:05;9.23;;;3.23;;
15354;SDS011;7777;52.254;9.618;2022-12-24T01:57:38;6.70;;;3.33;;
15354;SDS011;7777;52.254;9.618;2022-12-24T02:00:14;7.13;;;2.90;;
15354;SDS011;7777;52.254;9.618;2022-12-24T02:02:46;9.00;;;3.40;;
15354;SDS011;7777;52.254;9.618;2022-12-24T02:05:57;13.87;;;3.00;;
15354;SDS011;7777;52.254;9.618;2022-12-24T02:08:11;9.17;;;3.20;;
15354;SDS011;7777;52.254;9.618;2022-12-24T02:10:37;9.87;;;2.80;;
15354;SDS011;7777;52.254;9.618;2022-12-24T02:13:03;10.20;;;2.97;;
15354;SDS011;7777;52.254;9.618;2022-12-24T02:15:33;8.47;;;3.37;;
15354;SDS011;7777;52.254;9.618;2022-12-24T02:18:21;8.60;;;2.90;;
15354;SDS011;7777;52.254;9.618;2022-12-24T02:27:31;9.33;;;2.53;;
15354;SDS011;7777;52.254;9.618;2022-12-24T02:30:17;8.50;;;2.60;;
15354;SDS011;7777;52.254;9.618;2022-12-24T02:38:56;10.53;;;2.83;;
15354;SDS011;7777;52.254;9.618;2022-12-24T02:41:29;8.77;;;2.23;;
15354;SDS011;7777;52.254;9.618;2022-12-24T02:44:21;9.07;;;2.73;;
15354;SDS011;7777;52.254;9.618;2022-12-24T02:46:51;12.80;;;3.53;;
15354;SDS011;7777;52.254;9.618;2022-12-24T02:49:17;8.90;;;2.73;;
15354;SDS011;7777;52.254;9.618;2022-12-24T02:51:43;10.70;;;2.87;;
15354;SDS011;7777;52.254;9.618;2022-12-24T02:54:09;12.03;;;2.97;;
15354;SDS011;7777;52.254;9.618;2022-12-24T02:59:41;10.13;;;2.73;;
15354;SDS011;7777;52.254;9.618;2022-12-24T03:05:47;12.67;;;3.30;;
15354;SDS011;7777;52.254;9.618;2022-12-24T03:11:24;11.83;;;2.83;;
15354;SDS011;7777;52.254;9.618;2022-12-24T03:13:50;12.17;;;2.33;;
15354;SDS011;7777;52.254;9.618;2022-12-24T03:16:20;10.17;;;2.07;;
15354;SDS011;7777;52.254;9.618;2022-12-24T03:18:49;14.87;;;3.00;;
15354;SDS011;7777;52.254;9.618;2022-12-24T03:24:06;11.90;;;3.20;;
15354;SDS011;7777;52.254;9.618;2022-12-24T03:26:43;12.23;;;3.20;;
15354;SDS011;7777;52.254;9.618;2022-12-24T03:29:10;16.53;;;2.87;;
15354;SDS011;7777;52.254;9.618;2022-12-24T03:31:43;17.40;;;3.30;;
15354;SDS011;7777;52.254;9.618;2022-12-24T03:34:12;17.20;;;3.57;;
15354;SDS011;7777;52.254;9.618;2022-12-24T03:36:39;18.90;;;3.37;;
15354;SDS011;7777;52.254;9.618;2022-12-24T03:39:06;12.67;;;3.20;;
15354;SDS011;7777;52.254;9.618;2022-12-24T03:41:33;13.53;;;3.10;;
15354;SDS011;7777;52.254;9.618;2022-12-24T03:44:00;13.87;;;4.03;;
15354;SDS011;7777;52.254;9.618;2022-12-24T03:46:26;9.87;;;3.30;;
15354;SDS011;7777;52.254;9.618;2022-12-24T03:48:52;12.93;;;3.70;;
15354;SDS011;7777;52.254;9.618;2022-12-24T03:51:19;15.13;;;3.83;;
15354;SDS011;7777;52.254;9.618;2022-12-24T03:53:47;14.73;;;3.57;;
15354;SDS011;7777;52.254;9.618;2022-12-24T03:56:16;14.43;;;3.37;;
15354;SDS011;7777;52.254;9.618;2022-12-24T03:58:42;11.10;;;3.33;;
15354;SDS011;7777;52.254;9.618;2022-12-24T04:01:07;14.87;;;2.90;;
15354;SDS011;7777;52.254;9.618;2022-12-24T04:03:33;9.40;;;2.47;;
15354;SDS011;7777;52.254;9.618;2022-12-24T04:06:03;14.30;;;3.60;;
15354;SDS011;7777;52.254;9.618;2022-12-24T04:08:36;12.40;;;3.17;;
15354;SDS011;7777;52.254;9.618;2022-12-24T04:11:04;15.03;;;3.60;;
15354;SDS011;7777;52.254;9.618;2022-12-24T04:13:35;17.13;;;2.47;;
15354;SDS011;7777;52.254;9.618;2022-12-24T04:16:02;12.00;;;2.83;;
15354;SDS011;7777;52.254;9.618;2022-12-24T04:18:31;14.10;;;3.03;;
15354;SDS011;7777;52.254;9.618;2022-12-24T04:20:57;12.67;;;2.80;;
15354;SDS011;7777;52.254;9.618;2022-12-24T04:23:23;12.80;;;2.77;;
15354;SDS011;7777;52.254;9.618;2022-12-24T04:25:49;10.57;;;2.83;;
15354;SDS011;7777;52.254;9.618;2022-12-24T04:28:15;11.37;;;2.87;;
15354;SDS011;7777;52.254;9.618;2022-12-24T04:30:41;13.93;;;2.97;;
15354;SDS011;7777;52.254;9.618;2022-12-24T04:33:08;11.63;;;2.60;;
15354;SDS011;7777;52.254;9.618;2022-12-24T04:35:38;12.27;;;3.37;;
15354;SDS011;7777;52.254;9.618;2022-12-24T04:38:08;11.47;;;3.13;;
15354;SDS011;7777;52.254;9.618;2022-12-24T04:40:34;13.53;;;3.23;;
15354;SDS011;7777;52.254;9.618;2022-12-24T04:43:00;18.00;;;3.20;;
15354;SDS011;7777;52.254;9.618;2022-12-24T04:45:26;13.13;;;3.47;;
15354;SDS011;7777;52.254;9.618;2022-12-24T04:47:52;15.30;;;3.43;;
15354;SDS011;7777;52.254;9.618;2022-12-24T04:50:18;14.63;;;2.70;;
15354;SDS011;7777;52.254;9.618;2022-12-24T04:52:43;9.90;;;2.57;;
15354;SDS011;7777;52.254;9.618;2022-12-24T04:55:09;11.53;;;3.23;;
15354;SDS011;7777;52.254;9.618;2022-12-24T04:57:35;9.87;;;2.50;;
15354;SDS011;7777;52.254;9.618;2022-12-24T05:00:02;10.00;;;2.87;;
15354;SDS011;7777;52.254;9.618;2022-12-24T05:02:30;14.53;;;3.27;;
15354;SDS011;7777;52.254;9.618;2022-12-24T05:04:56;11.27;;;2.93;;
15354;SDS011;7777;52.254;9.618;2022-12-24T05:07:21;15.50;;;3.03;;
15354;SDS011;7777;52.254;9.618;2022-12-24T05:09:47;12.33;;;3.00;;
15354;SDS011;7777;52.254;9.618;2022-12-24T05:12:13;15.00;;;3.20;;
15354;SDS011;7777;52.254;9.618;2022-12-24T05:14:39;14.87;;;3.17;;
15354;SDS011;7777;52.254;9.618;2022-12-24T05:17:05;13.80;;;3.73;;
15354;SDS011;7777;52.254;9.618;2022-12-24T05:19:30;16.70;;;3.20;;
15354;SDS011;7777;52.254;9.618;2022-12-24T05:21:56;12.83;;;3.30;;
15354;SDS011;7777;52.254;9.618;2022-12-24T05:24:55;16.43;;;2.97;;
15354;SDS011;7777;52.254;9.618;2022-12-24T05:27:39;18.67;;;4.93;;
15354;SDS011;7777;52.254;9.618;2022-12-24T05:30:05;16.57;;;4.07;;
15354;SDS011;7777;52.254;9.618;2022-12-24T05:32:31;12.67;;;3.57;;
15354;SDS011;7777;52.254;9.618;2022-12-24T05:34:57;11.47;;;3.30;;
15354;SDS011;7777;52.254;9.618;2022-12-24T05:37:23;17.97;;;3.23;;
15354;SDS011;7777;52.254;9.618;2022-12-24T05:39:49;18.67;;;3.77;;
15354;SDS011;7777;52.254;9.618;2022-12-24T05:42:14;15.17;;;3.90;;
15354;SDS011;7777;52.254;9.618;2022-12-24T05:44:40;18.97;;;4.07;;
15354;SDS011;7777;52.254;9.618;2022-12-24T05:47:06;14.87;;;3.47;;
15354;SDS011;7777;52.254;9.618;2022-12-24T05:49:31;17.17;;;4.53;;
15354;SDS011;7777;52.254;9.618;2022-12-24T05:51:57;15.40;;;4.53;;
15354;SDS011;7777;52.254;9.618;2022-12-24T05:54:23;16.33;;;3.73;;
15354;SDS011;7777;52.254;9.618;2022-12-24T05:56:49;21.33;;;4.17;;
15354;SDS011;7777;52.254;9.618;2022-12-24T05:59:14;14.03;;;3.47;;
15354;SDS011;7777;52.254;9.618;2022-12-24T06:01:40;24.53;;;5.07;;
15354;SDS011;7777;52.254;9.618;2022-12-24T06:04:11;25.40;;;4.30;;
15354;SDS011;7777;52.254;9.618;2022-12-24T06:06:36;20.13;;;4.53;;
15354;SDS011;7777;52.254;9.618;2022-12-24T06:09:03;18.33;;;5.10;;
15354;SDS011;7777;52.254;9.618;2022-12-24T06:11:29;18.03;;;4.33;;
15354;SDS011;7777;52.254;9.618;2022-12-24T06:13:55;14.70;;;4.03;;
15354;SDS011;7777;52.254;9.618;2022-12-24T06:16:22;22.30;;;4.63;;
15354;SDS011;7777;52.254;9.618;2022-12-24T06:18:48;23.80;;;4.50;;
15354;SDS011;7777;52.254;9.618;2022-12-24T06:21:15;19.40;;;3.97;;
15354;SDS011;7777;52.254;9.618;2022-12-24T06:23:41;16.10;;;4.07;;
15354;SDS011;7777;52.254;9.618;2022-12-24T06:26:10;16.67;;;4.47;;
15354;SDS011;7777;52.254;9.618;2022-12-24T06:28:38;24.27;;;4.63;;
15354;SDS011;7777;52.254;9.618;2022-12-24T06:31:04;25.00;;;5.03;;
15354;SDS011;7777;52.254;9.618;2022-12-24T06:33:31;18.43;;;4.60;;
15354;SDS011;7777;52.254;9.618;2022-12-24T06:35:59;16.97;;;5.17;;
15354;SDS011;7777;52.254;9.618;2022-12-24T06:38:24;16.37;;;4.20;;
15354;SDS011;7777;52.254;9.618;2022-12-24T06:40:50;24.50;;;4.77;;
15354;SDS011;7777;52.254;9.618;2022-12-24T06:43:16;21.30;;;4.50;;
15354;SDS011;7777;52.254;9.618;2022-12-24T06:45:45;24.63;;;4.93;;
15354;SDS011;7777;52.254;9.618;2022-12-24T06:48:12;24.83;;;5.20;;
15354;SDS011;7777;52.254;9.618;2022-12-24T06:50:39;25.00;;;5.20;;
15354;SDS011;7777;52.254;9.618;2022-12-24T06:53:06;23.27;;;5.00;;
15354;SDS011;7777;52.254;9.618;2022-12-24T06:55:32;25.40;;;5.73;;
15354;SDS011;7777;52.254;9.618;2022-12-24T06:57:58;21.53;;;4.87;;
15354;SDS011;7777;52.254;9.618;2022-12-24T07:00:24;22.53;;;4.60;;
15354;SDS011;7777;52.254;9.618;2022-12-24T07:02:49;26.30;;;5.50;;
15354;SDS011;7777;52.254;9.618;2022-12-24T07:05:15;19.13;;;4.97;;
15354;SDS011;7777;52.254;9.618;2022-12-24T07:07:42;16.87;;;4.33;;
15354;SDS011;7777;52.254;9.618;2022-12-24T07:10:09;22.07;;;4.57;;
15354;SDS011;7777;52.254;9.618;2022-12-24T07:12:38;19.43;;;4.67;;
15354;SDS011;7777;52.254;9.618;2022-12-24T07:15:04;25.17;;;4.73;;
15354;SDS011;7777;52.254;9.618;2022-12-24T07:17:30;20.73;;;4.57;;
15354;SDS011;7777;52.254;9.618;2022-12-24T07:19:56;20.00;;;3.97;;
15354;SDS011;7777;52.254;9.618;2022-12-24T07:22:22;17.77;;;4.87;;
15354;SDS011;7777;52.254;9.618;2022-12-24T07:24:48;15.03;;;3.60;;
15354;SDS011;7777;52.254;9.618;2022-12-24T07:27:14;19.53;;;4.63;;
15354;SDS011;7777;52.254;9.618;2022-12-24T07:29:40;20.83;;;4.27;;
15354;SDS011;7777;52.254;9.618;2022-12-24T07:32:06;17.17;;;4.20;;
15354;SDS011;7777;52.254;9.618;2022-12-24T07:34:31;19.93;;;4.60;;
15354;SDS011;7777;52.254;9.618;2022-12-24T07:36:57;18.70;;;3.80;;
15354;SDS011;7777;52.254;9.618;2022-12-24T07:39:23;16.17;;;4.50;;
15354;SDS011;7777;52.254;9.618;2022-12-24T07:41:49;15.83;;;3.97;;
15354;SDS011;7777;52.254;9.618;2022-12-24T07:44:15;16.07;;;3.53;;
15354;SDS011;7777;52.254;9.618;2022-12-24T07:46:41;20.90;;;4.23;;
15354;SDS011;7777;52.254;9.618;2022-12-24T07:49:08;18.87;;;4.40;;
15354;SDS011;7777;52.254;9.618;2022-12-24T07:51:34;19.63;;;3.47;;
15354;SDS011;7777;52.254;9.618;2022-12-24T07:54:00;14.20;;;4.07;;
15354;SDS011;7777;52.254;9.618;2022-12-24T07:56:28;16.00;;;3.97;;
15354;SDS011;7777;52.254;9.618;2022-12-24T07:58:55;21.60;;;4.87;;
15354;SDS011;7777;52.254;9.618;2022-12-24T08:01:21;17.87;;;4.47;;
15354;SDS011;7777;52.254;9.618;2022-12-24T08:03:47;17.90;;;5.03;;
15354;SDS011;7777;52.254;9.618;2022-12-24T08:06:15;23.80;;;5.27;;
15354;SDS011;7777;52.254;9.618;2022-12-24T08:08:41;19.00;;;4.53;;
15354;SDS011;7777;52.254;9.618;2022-12-24T08:11:07;24.60;;;4.97;;
15354;SDS011;7777;52.254;9.618;2022-12-24T08:13:33;22.57;;;4.93;;
15354;SDS011;7777;52.254;9.618;2022-12-24T08:15:59;20.83;;;4.87;;
15354;SDS011;7777;52.254;9.618;2022-12-24T08:18:25;16.93;;;4.87;;
15354;SDS011;7777;52.254;9.618;2022-12-24T08:20:51;13.63;;;4.13;;
15354;SDS011;7777;52.254;9.618;2022-12-24T08:23:16;17.03;;;4.37;;
15354;SDS011;7777;52.254;9.618;2022-12-24T08:25:44;21.83;;;6.07;;
15354;SDS011;7777;52.254;9.618;2022-12-24T08:28:12;16.60;;;5.37;;
15354;SDS011;7777;52.254;9.618;2022-12-24T08:30:39;20.93;;;5.80;;
15354;SDS011;7777;52.254;9.618;2022-12-24T08:33:06;20.43;;;5.17;;
15354;SDS011;7777;52.254;9.618;2022-12-24T08:35:32;23.17;;;5.40;;
15354;SDS011;7777;52.254;9.618;2022-12-24T08:37:57;26.20;;;6.63;;
15354;SDS011;7777;52.254;9.618;2022-12-24T08:40:23;25.90;;;6.80;;
15354;SDS011;7777;52.254;9.618;2022-12-24T08:42:49;23.23;;;5.87;;
15354;SDS011;7777;52.254;9.618;2022-12-24T08:45:15;20.07;;;6.00;;
15354;SDS011;7777;52.254;9.618;2022-12-24T08:47:43;27.90;;;6.30;;
15354;SDS011;7777;52.254;9.618;2022-12-24T08:50:15;27.90;;;6.90;;
15354;SDS011;7777;52.254;9.618;2022-12-24T08:52:40;27.50;;;7.33;;
15354;SDS011;7777;52.254;9.618;2022-12-24T08:55:06;21.40;;;6.67;;
15354;SDS011;7777;52.254;9.618;2022-12-24T08:57:34;16.70;;;5.37;;
15354;SDS011;7777;52.254;9.618;2022-12-24T09:00:01;20.77;;;6.43;;
15354;SDS011;7777;52.254;9.618;2022-12-24T09:02:29;26.20;;;7.00;;
15354;SDS011;7777;52.254;9.618;2022-12-24T09:04:55;18.53;;;6.57;;
15354;SDS011;7777;52.254;9.618;2022-12-24T09:07:21;25.93;;;7.70;;
15354;SDS011;7777;52.254;9.618;2022-12-24T09:09:47;12.80;;;5.40;;
15354;SDS011;7777;52.254;9.618;2022-12-24T09:12:12;22.70;;;6.70;;
15354;SDS011;7777;52.254;9.618;2022-12-24T09:14:38;17.00;;;5.37;;
15354;SDS011;7777;52.254;9.618;2022-12-24T09:17:04;16.70;;;5.77;;
15354;SDS011;7777;52.254;9.618;2022-12-24T09:19:29;19.73;;;5.73;;
15354;SDS011;7777;52.254;9.618;2022-12-24T09:21:55;17.67;;;4.60;;
15354;SDS011;7777;52.254;9.618;2022-12-24T09:24:21;20.93;;;5.87;;
15354;SDS011;7777;52.254;9.618;2022-12-24T09:26:47;18.63;;;5.40;;
15354;SDS011;7777;52.254;9.618;2022-12-24T09:29:13;18.47;;;5.30;;
15354;SDS011;7777;52.254;9.618;2022-12-24T09:31:40;17.23;;;5.23;;
15354;SDS011;7777;52.254;9.618;2022-12-24T09:34:06;13.77;;;4.53;;
15354;SDS011;7777;52.254;9.618;2022-12-24T09:36:33;17.80;;;5.30;;
15354;SDS011;7777;52.254;9.618;2022-12-24T09:39:00;20.50;;;5.23;;
15354;SDS011;7777;52.254;9.618;2022-12-24T09:41:36;18.57;;;6.20;;
15354;SDS011;7777;52.254;9.618;2022-12-24T09:50:32;17.70;;;5.60;;
15354;SDS011;7777;52.254;9.618;2022-12-24T09:53:22;17.13;;;5.03;;
15354;SDS011;7777;52.254;9.618;2022-12-24T09:56:11;16.57;;;5.10;;
15354;SDS011;7777;52.254;9.618;2022-12-24T09:58:46;20.30;;;6.40;;
15354;SDS011;7777;52.254;9.618;2022-12-24T10:01:24;19.50;;;6.10;;
15354;SDS011;7777;52.254;9.618;2022-12-24T10:03:52;14.23;;;4.83;;
15354;SDS011;7777;52.254;9.618;2022-12-24T10:06:19;15.73;;;5.00;;
15354;SDS011;7777;52.254;9.618;2022-12-24T10:11:35;20.30;;;5.93;;
15354;SDS011;7777;52.254;9.618;2022-12-24T10:29:11;18.57;;;5.20;;
15354;SDS011;7777;52.254;9.618;2022-12-24T10:34:52;17.20;;;4.70;;
15354;SDS011;7777;52.254;9.618;2022-12-24T10:37:23;17.17;;;4.70;;
15354;SDS011;7777;52.254;9.618;2022-12-24T10:39:53;13.40;;;3.60;;
15354;SDS011;7777;52.254;9.618;2022-12-24T10:42:24;12.53;;;4.70;;
15354;SDS011;7777;52.254;9.618;2022-12-24T10:45:04;9.83;;;4.00;;
15354;SDS011;7777;52.254;9.618;2022-12-24T10:47:35;15.73;;;4.17;;
15354;SDS011;7777;52.254;9.618;2022-12-24T10:50:04;9.33;;;3.63;;
15354;SDS011;7777;52.254;9.618;2022-12-24T10:53:18;10.40;;;3.67;;
15354;SDS011;7777;52.254;9.618;2022-12-24T10:56:02;13.23;;;3.87;;
15354;SDS011;7777;52.254;9.618;2022-12-24T10:58:31;10.43;;;3.50;;
15354;SDS011;7777;52.254;9.618;2022-12-24T11:00:58;11.10;;;3.50;;
15354;SDS011;7777;52.254;9.618;2022-12-24T11:03:29;13.23;;;3.60;;
15354;SDS011;7777;52.254;9.618;2022-12-24T11:06:02;11.33;;;3.90;;
15354;SDS011;7777;52.254;9.618;2022-12-24T11:08:35;13.37;;;3.90;;
15354;SDS011;7777;52.254;9.618;2022-12-24T11:11:05;16.23;;;3.97;;
15354;SDS011;7777;52.254;9.618;2022-12-24T11:16:29;13.97;;;3.83;;
15354;SDS011;7777;52.254;9.618;2022-12-24T11:19:03;10.23;;;3.30;;
15354;SDS011;7777;52.254;9.618;2022-12-24T11:21:39;8.13;;;3.37;;
15354;SDS011;7777;52.254;9.618;2022-12-24T11:26:37;10.43;;;3.20;;
15354;SDS011;7777;52.254;9.618;2022-12-24T11:34:45;4.53;;;1.73;;
15354;SDS011;7777;52.254;9.618;2022-12-24T11:37:15;6.37;;;1.93;;
15354;SDS011;7777;52.254;9.618;2022-12-24T11:39:49;8.57;;;2.40;;
15354;SDS011;7777;52.254;9.618;2022-12-24T11:42:36;5.77;;;2.20;;
15354;SDS011;7777;52.254;9.618;2022-12-24T11:45:05;10.23;;;2.27;;
15354;SDS011;7777;52.254;9.618;2022-12-24T11:47:53;6.33;;;1.93;;
15354;SDS011;7777;52.254;9.618;2022-12-24T11:58:27;8.43;;;1.90;;
15354;SDS011;7777;52.254;9.618;2022-12-24T12:01:03;5.20;;;1.40;;
15354;SDS011;7777;52.254;9.618;2022-12-24T12:03:56;5.17;;;1.60;;
15354;SDS011;7777;52.254;9.618;2022-12-24T12:06:29;6.60;;;1.70;;
15354;SDS011;7777;52.254;9.618;2022-12-24T12:09:20;5.77;;;1.97;;
15354;SDS011;7777;52.254;9.618;2022-12-24T12:11:55;7.17;;;2.20;;
15354;SDS011;7777;52.254;9.618;2022-12-24T12:14:51;6.17;;;2.47;;
15354;SDS011;7777;52.254;9.618;2022-12-24T12:28:36;15.43;;;5.03;;
15354;SDS011;7777;52.254;9.618;2022-12-24T12:31:24;16.20;;;5.23;;
15354;SDS011;7777;52.254;9.618;2022-12-24T12:34:16;15.10;;;4.77;;
15354;SDS011;7777;52.254;9.618;2022-12-24T12:37:11;23.57;;;6.47;;
15354;SDS011;7777;52.254;9.618;2022-12-24T12:40:01;11.90;;;4.73;;
15354;SDS011;7777;52.254;9.618;2022-12-24T12:42:33;18.93;;;5.27;;
15354;SDS011;7777;52.254;9.618;2022-12-24T12:56:53;20.63;;;5.40;;
15354;SDS011;7777;52.254;9.618;2022-12-24T12:59:32;22.97;;;6.40;;
15354;SDS011;7777;52.254;9.618;2022-12-24T13:05:39;21.60;;;6.20;;
15354;SDS011;7777;52.254;9.618;2022-12-24T13:25:21;25.43;;;6.17;;
15354;SDS011;7777;52.254;9.618;2022-12-24T13:28:14;18.87;;;5.17;;
15354;SDS011;7777;52.254;9.618;2022-12-24T13:30:46;18.33;;;5.53;;
15354;SDS011;7777;52.254;9.618;2022-12-24T13:36:13;20.43;;;5.27;;
15354;SDS011;7777;52.254;9.618;2022-12-24T13:38:48;21.63;;;6.20;;
15354;SDS011;7777;52.254;9.618;2022-12-24T13:46:45;24.10;;;5.47;;
15354;SDS011;7777;52.254;9.618;2022-12-24T13:49:20;15.87;;;4.40;;
15354;SDS011;7777;52.254;9.618;2022-12-24T13:54:39;18.10;;;5.27;;
15354;SDS011;7777;52.254;9.618;2022-12-24T13:57:28;22.60;;;6.13;;
15354;SDS011;7777;52.254;9.618;2022-12-24T14:03:13;17.97;;;5.70;;
15354;SDS011;7777;52.254;9.618;2022-12-24T14:05:53;26.83;;;6.50;;
15354;SDS011;7777;52.254;9.618;2022-12-24T14:16:18;21.50;;;5.63;;
15354;SDS011;7777;52.254;9.618;2022-12-24T14:19:12;17.87;;;5.83;;
15354;SDS011;7777;52.254;9.618;2022-12-24T14:21:44;16.97;;;5.40;;
15354;SDS011;7777;52.254;9.618;2022-12-24T14:24:52;16.33;;;4.77;;
15354;SDS011;7777;52.254;9.618;2022-12-24T14:27:31;14.97;;;4.70;;
15354;SDS011;7777;52.254;9.618;2022-12-24T14:30:03;17.40;;;5.23;;
15354;SDS011;7777;52.254;9.618;2022-12-24T14:32:43;18.07;;;5.20;;
15354;SDS011;7777;52.254;9.618;2022-12-24T14:37:38;15.27;;;5.73;;
15354;SDS011;7777;52.254;9.618;2022-12-24T14:40:06;20.80;;;5.17;;
15354;SDS011;7777;52.254;9.618;2022-12-24T14:45:46;19.37;;;5.63;;
15354;SDS011;7777;52.254;9.618;2022-12-24T14:59:56;15.43;;;4.97;;
15354;SDS011;7777;52.254;9.618;2022-12-24T15:05:23;16.50;;;5.17;;
15354;SDS011;7777;52.254;9.618;2022-12-24T15:08:02;23.07;;;5.27;;
15354;SDS011;7777;52.254;9.618;2022-12-24T15:10:34;17.23;;;5.43;;
15354;SDS011;7777;52.254;9.618;2022-12-24T15:15:45;20.40;;;4.47;;
15354;SDS011;7777;52.254;9.618;2022-12-24T15:18:14;15.40;;;4.60;;
15354;SDS011;7777;52.254;9.618;2022-12-24T15:20:44;19.53;;;4.80;;
15354;SDS011;7777;52.254;9.618;2022-12-24T15:23:24;17.83;;;4.70;;
15354;SDS011;7777;52.254;9.618;2022-12-24T15:29:00;21.40;;;5.30;;
15354;SDS011;7777;52.254;9.618;2022-12-24T15:31:26;15.30;;;4.30;;
15354;SDS011;7777;52.254;9.618;2022-12-24T15:33:54;15.57;;;4.60;;
15354;SDS011;7777;52.254;9.618;2022-12-24T15:36:27;20.03;;;4.90;;
15354;SDS011;7777;52.254;9.618;2022-12-24T15:39:12;21.57;;;5.17;;
15354;SDS011;7777;52.254;9.618;2022-12-24T15:41:42;14.83;;;4.33;;
15354;SDS011;7777;52.254;9.618;2022-12-24T15:44:28;17.40;;;4.87;;
15354;SDS011;7777;52.254;9.618;2022-12-24T15:47:01;19.63;;;5.17;;
15354;SDS011;7777;52.254;9.618;2022-12-24T15:49:35;14.17;;;4.83;;
15354;SDS011;7777;52.254;9.618;2022-12-24T15:52:11;16.13;;;4.63;;
15354;SDS011;7777;52.254;9.618;2022-12-24T15:54:43;17.50;;;4.83;;
15354;SDS011;7777;52.254;9.618;2022-12-24T15:57:12;21.20;;;5.67;;
15354;SDS011;7777;52.254;9.618;2022-12-24T15:59:55;17.60;;;4.70;;
15354;SDS011;7777;52.254;9.618;2022-12-24T16:04:51;19.93;;;5.10;;
15354;SDS011;7777;52.254;9.618;2022-12-24T16:07:23;20.07;;;5.30;;
15354;SDS011;7777;52.254;9.618;2022-12-24T16:10:22;15.23;;;4.63;;
15354;SDS011;7777;52.254;9.618;2022-12-24T16:12:49;22.20;;;5.50;;
15354;SDS011;7777;52.254;9.618;2022-12-24T16:15:14;21.10;;;5.33;;
15354;SDS011;7777;52.254;9.618;2022-12-24T16:17:40;25.00;;;5.53;;
15354;SDS011;7777;52.254;9.618;2022-12-24T16:20:19;17.13;;;5.03;;
15354;SDS011;7777;52.254;9.618;2022-12-24T16:22:46;21.33;;;5.73;;
15354;SDS011;7777;52.254;9.618;2022-12-24T16:27:42;22.13;;;5.50;;
15354;SDS011;7777;52.254;9.618;2022-12-24T16:30:10;20.57;;;5.80;;
15354;SDS011;7777;52.254;9.618;2022-12-24T16:32:36;19.43;;;5.67;;
15354;SDS011;7777;52.254;9.618;2022-12-24T16:35:06;18.77;;;5.77;;
15354;SDS011;7777;52.254;9.618;2022-12-24T16:37:48;19.60;;;5.80;;
15354;SDS011;7777;52.254;9.618;2022-12-24T16:40:14;21.07;;;6.13;;
15354;SDS011;7777;52.254;9.618;2022-12-24T16:42:40;22.57;;;5.53;;
15354;SDS011;7777;52.254;9.618;2022-12-24T16:45:24;15.93;;;5.30;;
15354;SDS011;7777;52.254;9.618;2022-12-24T16:47:53;18.43;;;5.37;;
15354;SDS011;7777;52.254;9.618;2022-12-24T16:50:22;16.17;;;5.90;;
15354;SDS011;7777;52.254;9.618;2022-12-24T16:52:48;18.80;;;5.47;;
15354;SDS011;7777;52.254;9.618;2022-12-24T16:55:15;16.17;;;4.93;;
15354;SDS011;7777;52.254;9.618;2022-12-24T16:57:41;17.23;;;5.20;;
15354;SDS011;7777;52.254;9.618;2022-12-24T17:00:10;13.87;;;5.00;;
15354;SDS011;7777;52.254;9.618;2022-12-24T17:02:43;11.83;;;4.37;;
15354;SDS011;7777;52.254;9.618;2022-12-24T17:05:10;22.27;;;6.10;;
15354;SDS011;7777;52.254;9.618;2022-12-24T17:07:37;17.57;;;4.27;;
15354;SDS011;7777;52.254;9.618;2022-12-24T17:10:03;21.63;;;5.83;;
15354;SDS011;7777;52.254;9.618;2022-12-24T17:12:29;14.77;;;4.33;;
15354;SDS011;7777;52.254;9.618;2022-12-24T17:14:55;17.80;;;5.53;;
15354;SDS011;7777;52.254;9.618;2022-12-24T17:17:27;19.70;;;5.30;;
15354;SDS011;7777;52.254;9.618;2022-12-24T17:19:55;20.03;;;4.50;;
15354;SDS011;7777;52.254;9.618;2022-12-24T17:22:21;14.60;;;4.30;;
15354;SDS011;7777;52.254;9.618;2022-12-24T17:24:48;19.13;;;4.40;;
15354;SDS011;7777;52.254;9.618;2022-12-24T17:27:14;18.40;;;4.43;;
15354;SDS011;7777;52.254;9.618;2022-12-24T17:29:40;20.40;;;4.93;;
15354;SDS011;7777;52.254;9.618;2022-12-24T17:32:06;20.60;;;4.57;;
15354;SDS011;7777;52.254;9.618;2022-12-24T17:34:32;15.43;;;4.20;;
15354;SDS011;7777;52.254;9.618;2022-12-24T17:36:58;14.27;;;5.17;;
15354;SDS011;7777;52.254;9.618;2022-12-24T17:39:24;17.63;;;4.57;;
15354;SDS011;7777;52.254;9.618;2022-12-24T17:41:50;16.50;;;4.80;;
15354;SDS011;7777;52.254;9.618;2022-12-24T17:44:16;15.93;;;4.43;;
15354;SDS011;7777;52.254;9.618;2022-12-24T17:49:11;20.70;;;5.23;;
15354;SDS011;7777;52.254;9.618;2022-12-24T17:51:37;25.47;;;5.70;;
15354;SDS011;7777;52.254;9.618;2022-12-24T17:54:03;16.93;;;5.73;;
15354;SDS011;7777;52.254;9.618;2022-12-24T17:56:29;18.03;;;5.43;;
15354;SDS011;7777;52.254;9.618;2022-12-24T17:58:54;14.53;;;4.67;;
15354;SDS011;7777;52.254;9.618;2022-12-24T18:01:21;18.43;;;6.03;;